Xisha Dao, China
Current Conditions -  °F | °C
As of 9:00 PM on Friday 28 Nov 2014 (Local Time) from ZJSY Reporting Station
Scattered Clouds Scattered Clouds  
Wind Chill: 81°   Ceiling: Unl
Heat Index: 85°   Visibility: 6mi
Dew Point: 73°   Wind: 11mph
Humidity: 79%   Direction: 80°E
Pressure: 29.91"   Gusts: NA
Location:  16.83°N, 112.33°E
Report Text: ZJSY 281300Z 08005MPS 9999 SCT050 27/23 Q1013 NOSIG
Loading
Personal Weather Stations






























Interactive Weather Map New forecast layout! Learn more

10-Day Weather Forecast

Advertisements
Track Severe Weather on mobile